Details for Ryanair at LEST




Go Back


Latest METAR
Local Time

LEST 221730Z 33005KT 300V360 9999 FEW035 22/13 Q1015 NOSIG

22/05/2018, 19:58:25

Description
Results
Ryanair Logo
Number of Pilots based at LEST
0 Pilots Based here
Number of Ryanair Flights Departed from LEST
0 Flights Departed
Number of Ryanair Flights Arrived at LEST
0 Flights Arrived
Number of Ryanair Schedules Departing from LEST
23 Schedules
Number of Ryanair Schedules Arriving at LEST
23 Schedules
Number of Ryanair Schedules Departing from LEST availible today
8 Schedules Today
Number of Ryanair Schedules Arriving at LEST availible today
8 Schedules Today
Average Landing Rate at LEST
-102 fpm
Ryanair Average Landing Rate at LEST
0 fpm
Total Fuel Purchased at LEST by Ryanair
0.00 kgs / 0.00 lbs

Pilots Based at LEST


Pilot ID
Pilot Name
Pilot Rank
No. of Flights
No. of Flying Hours
There are no pilots assigned to this hub!   Will you be the first?
Content